createdAt,value
2023-05-14T00:00:46.838Z,61.37
2023-05-14T00:05:48.447Z,61.56
2023-05-14T00:10:50.047Z,60.99
2023-05-14T00:15:51.605Z,60.59
2023-05-14T00:20:55.035Z,60.68
2023-05-14T00:25:56.722Z,60.71
2023-05-14T00:31:05.188Z,61.05
2023-05-14T00:36:07.973Z,61.09
2023-05-14T00:41:09.544Z,61.26
2023-05-14T00:46:12.498Z,61.33
2023-05-14T00:51:14.288Z,61.41
2023-05-14T00:56:16.646Z,62.24
2023-05-14T01:01:18.215Z,61.96
2023-05-14T01:06:36.776Z,62.43
2023-05-14T01:11:47.612Z,62.20
2023-05-14T01:16:53.148Z,62.05
2023-05-14T01:21:54.860Z,63.31
2023-05-14T01:27:03.273Z,64.46
2023-05-14T01:32:08.009Z,63.10
2023-05-14T01:37:12.668Z,63.04
2023-05-14T01:42:17.239Z,63.53
2023-05-14T01:47:19.074Z,63.24
2023-05-14T01:52:21.257Z,64.40
2023-05-14T01:57:22.765Z,64.21
2023-05-14T02:02:24.410Z,63.78
2023-05-14T02:07:26.407Z,63.94
2023-05-14T02:12:28.002Z,63.71
2023-05-14T02:17:29.656Z,64.00
2023-05-14T02:22:31.262Z,64.58
2023-05-14T02:27:32.791Z,64.47
2023-05-14T02:32:34.453Z,64.56
2023-05-14T02:37:36.185Z,64.56
2023-05-14T02:42:37.736Z,64.81
2023-05-14T02:47:39.242Z,64.90
2023-05-14T02:52:40.927Z,64.46
2023-05-14T02:57:42.409Z,64.66
2023-05-14T03:02:44.773Z,64.90
2023-05-14T03:07:46.916Z,65.04
2023-05-14T03:12:48.541Z,65.35
2023-05-14T03:17:50.139Z,67.42
2023-05-14T03:22:52.216Z,65.99
2023-05-14T03:27:53.714Z,65.30
2023-05-14T03:32:55.597Z,65.47
2023-05-14T03:37:59.242Z,62.95
2023-05-14T03:43:00.820Z,59.62
2023-05-14T03:48:03.554Z,57.30
2023-05-14T03:53:05.404Z,61.10
2023-05-14T03:58:11.068Z,63.91
2023-05-14T04:03:12.652Z,65.25
2023-05-14T04:08:14.317Z,66.39
2023-05-14T04:13:15.838Z,66.43
2023-05-14T04:18:17.368Z,67.19
2023-05-14T04:23:18.917Z,66.63
2023-05-14T04:28:20.776Z,68.06
2023-05-14T04:33:22.686Z,67.90
2023-05-14T04:38:24.177Z,66.41
2023-05-14T04:43:25.868Z,65.42
2023-05-14T04:48:27.853Z,66.53
2023-05-14T04:53:29.740Z,64.44
2023-05-14T04:58:34.617Z,64.09
2023-05-14T05:03:36.786Z,64.30
2023-05-14T05:08:38.395Z,64.60
2023-05-14T05:13:39.952Z,62.84
2023-05-14T05:18:41.721Z,62.54
2023-05-14T05:23:43.880Z,62.26
2023-05-14T05:28:45.507Z,62.89
2023-05-14T05:33:47.030Z,63.09
2023-05-14T05:38:48.525Z,63.19
2023-05-14T05:43:50.018Z,63.33
2023-05-14T05:48:53.322Z,62.87
2023-05-14T05:53:54.843Z,61.83
2023-05-14T05:58:56.366Z,62.37
2023-05-14T06:03:58.026Z,61.26
2023-05-14T06:08:59.569Z,60.25
2023-05-14T06:14:01.376Z,59.99
2023-05-14T06:19:03.238Z,59.31
2023-05-14T06:24:05.723Z,59.25
2023-05-14T06:29:07.374Z,58.20
2023-05-14T06:34:09.340Z,58.47
2023-05-14T06:39:10.897Z,58.52
2023-05-14T06:44:12.464Z,58.01
2023-05-14T06:49:14.090Z,56.35
2023-05-14T06:54:15.733Z,55.80
2023-05-14T06:59:17.355Z,56.05
2023-05-14T07:04:18.860Z,55.77
2023-05-14T07:09:20.448Z,55.25
2023-05-14T07:14:21.966Z,54.68
2023-05-14T07:19:23.575Z,54.37
2023-05-14T07:24:25.097Z,52.93
2023-05-14T07:29:26.637Z,51.30
2023-05-14T07:34:28.251Z,50.26
2023-05-14T07:39:29.750Z,48.23
2023-05-14T07:44:31.256Z,47.86
2023-05-14T07:49:32.788Z,48.02
2023-05-14T07:54:34.369Z,47.69
2023-05-14T07:59:35.933Z,46.86
2023-05-14T08:04:37.579Z,44.84
2023-05-14T08:09:39.237Z,45.25
2023-05-14T08:14:40.742Z,42.46
2023-05-14T08:19:42.252Z,42.34
2023-05-14T08:24:43.791Z,42.46
2023-05-14T08:29:45.338Z,41.58
2023-05-14T08:34:46.825Z,40.19
2023-05-14T08:39:49.177Z,40.73
2023-05-14T08:45:00.591Z,41.24
2023-05-14T08:50:08.259Z,40.84
2023-05-14T08:55:11.799Z,40.01
2023-05-14T09:00:15.169Z,39.45
2023-05-14T09:05:18.426Z,38.89
2023-05-14T09:10:21.080Z,38.43
2023-05-14T09:15:24.728Z,37.94
2023-05-14T09:20:26.817Z,37.34
2023-05-14T09:25:32.424Z,37.39
2023-05-14T09:30:41.370Z,36.71
2023-05-14T09:35:43.482Z,37.15
2023-05-14T09:40:46.715Z,36.52
2023-05-14T09:45:48.260Z,36.41
2023-05-14T09:50:49.876Z,36.04
2023-05-14T09:55:51.592Z,35.85
2023-05-14T10:00:58.761Z,36.60
2023-05-14T10:06:04.919Z,35.59
2023-05-14T10:11:12.405Z,36.79
2023-05-14T10:16:22.005Z,36.58
2023-05-14T10:21:24.373Z,36.04
2023-05-14T10:26:26.446Z,35.61
2023-05-14T10:31:45.302Z,35.34
2023-05-14T10:36:46.992Z,35.95
2023-05-14T10:41:48.504Z,35.56
2023-05-14T10:46:50.246Z,34.76
2023-05-14T10:51:53.516Z,35.44
2023-05-14T10:56:59.604Z,34.84
2023-05-14T11:02:04.792Z,34.87
2023-05-14T11:07:06.844Z,34.13
2023-05-14T11:12:09.162Z,33.62
2023-05-14T11:17:10.674Z,33.40
2023-05-14T11:22:15.180Z,33.57
2023-05-14T11:27:18.177Z,33.03
2023-05-14T11:32:20.543Z,32.81
2023-05-14T11:37:22.738Z,32.05
2023-05-14T11:42:25.832Z,31.23
2023-05-14T11:47:29.566Z,31.32
2023-05-14T11:52:31.322Z,31.03
2023-05-14T11:57:32.910Z,30.76
2023-05-14T12:02:34.762Z,31.17
2023-05-14T12:07:36.314Z,31.20
2023-05-14T12:12:37.824Z,31.60
2023-05-14T12:17:39.907Z,31.52
2023-05-14T12:22:49.037Z,32.82
2023-05-14T12:27:50.787Z,31.68
2023-05-14T12:32:53.171Z,32.18
2023-05-14T12:37:54.889Z,31.59
2023-05-14T12:42:57.020Z,31.05
2023-05-14T12:47:58.653Z,31.24
2023-05-14T12:53:00.285Z,30.94
2023-05-14T12:58:02.039Z,31.13
2023-05-14T13:03:03.652Z,30.94
2023-05-14T13:08:05.363Z,30.04
2023-05-14T13:13:06.912Z,30.31
2023-05-14T13:18:08.510Z,30.40
2023-05-14T13:23:10.111Z,30.03
2023-05-14T13:28:11.730Z,30.03
2023-05-14T13:33:13.345Z,30.81
2023-05-14T13:38:15.136Z,29.66
2023-05-14T13:43:17.021Z,29.14
2023-05-14T13:48:19.087Z,29.22
2023-05-14T13:53:22.949Z,29.88
2023-05-14T13:58:25.486Z,29.60
2023-05-14T14:03:27.075Z,28.95
2023-05-14T14:08:28.739Z,29.07
2023-05-14T14:13:30.293Z,29.76
2023-05-14T14:18:32.409Z,29.21
2023-05-14T14:23:34.091Z,29.10
2023-05-14T14:28:35.937Z,29.19
2023-05-14T14:33:37.539Z,28.94
2023-05-14T14:38:39.642Z,28.84
2023-05-14T14:43:41.443Z,28.74
2023-05-14T14:48:44.014Z,28.73
2023-05-14T14:53:45.549Z,28.95
2023-05-14T14:58:47.060Z,29.28
2023-05-14T15:03:49.146Z,29.40
2023-05-14T15:08:50.704Z,28.89
2023-05-14T15:13:52.323Z,28.42
2023-05-14T15:18:54.183Z,28.98
2023-05-14T15:23:56.005Z,29.16
2023-05-14T15:28:59.016Z,29.92
2023-05-14T15:34:00.838Z,29.01
2023-05-14T15:39:02.401Z,29.20
2023-05-14T15:44:04.126Z,28.96
2023-05-14T15:49:06.121Z,28.93
2023-05-14T15:54:07.681Z,29.03
2023-05-14T15:59:09.594Z,29.26
2023-05-14T16:04:14.328Z,29.28
2023-05-14T16:09:15.833Z,28.83
2023-05-14T16:14:18.476Z,29.01
2023-05-14T16:19:20.888Z,29.13
2023-05-14T16:24:22.424Z,28.68
2023-05-14T16:29:24.022Z,28.87
2023-05-14T16:34:25.583Z,29.10
2023-05-14T16:39:27.268Z,29.01
2023-05-14T16:44:28.836Z,28.99
2023-05-14T16:49:30.378Z,29.50
2023-05-14T16:54:31.905Z,30.20
2023-05-14T16:59:33.567Z,30.30
2023-05-14T17:04:38.810Z,30.58
2023-05-14T17:09:40.951Z,31.25
2023-05-14T17:14:44.600Z,31.61
2023-05-14T17:19:46.303Z,31.99
2023-05-14T17:24:47.800Z,32.87
2023-05-14T17:29:51.231Z,33.11
2023-05-14T17:34:52.845Z,33.28
2023-05-14T17:39:54.424Z,34.26
2023-05-14T17:44:55.942Z,34.11
2023-05-14T17:49:57.662Z,34.75
2023-05-14T17:54:59.227Z,35.21
2023-05-14T18:00:00.898Z,35.06
2023-05-14T18:05:03.037Z,35.70
2023-05-14T18:10:05.477Z,36.20
2023-05-14T18:15:07.471Z,36.51
2023-05-14T18:20:09.654Z,36.84
2023-05-14T18:25:12.882Z,37.04
2023-05-14T18:30:15.341Z,37.35
2023-05-14T18:35:16.911Z,37.67
2023-05-14T18:40:18.868Z,38.11
2023-05-14T18:45:21.675Z,38.05
2023-05-14T18:50:23.294Z,38.43
2023-05-14T18:55:25.119Z,38.78
2023-05-14T19:00:26.851Z,38.62
2023-05-14T19:05:28.389Z,39.87
2023-05-14T19:10:30.204Z,39.92
2023-05-14T19:15:32.450Z,40.18
2023-05-14T19:20:33.987Z,40.33
2023-05-14T19:25:35.671Z,41.60
2023-05-14T19:30:41.841Z,41.80
2023-05-14T19:35:43.524Z,42.20
2023-05-14T19:40:46.110Z,42.31
2023-05-14T19:45:47.873Z,42.54
2023-05-14T19:50:49.398Z,42.87
2023-05-14T19:55:50.885Z,43.66
2023-05-14T20:00:55.493Z,43.47
2023-05-14T20:05:58.030Z,43.92
2023-05-14T20:10:59.573Z,44.14
2023-05-14T20:16:01.364Z,44.23
2023-05-14T20:21:02.877Z,44.38
2023-05-14T20:26:04.477Z,45.38
2023-05-14T20:31:06.079Z,44.78
2023-05-14T20:36:07.935Z,45.04
2023-05-14T20:41:09.452Z,46.22
2023-05-14T20:46:11.098Z,46.52
2023-05-14T20:51:12.704Z,46.80
2023-05-14T20:56:14.308Z,46.57
2023-05-14T21:01:15.844Z,46.57
2023-05-14T21:06:17.329Z,46.84
2023-05-14T21:11:20.691Z,46.86
2023-05-14T21:16:22.447Z,47.62
2023-05-14T21:21:24.216Z,47.63
2023-05-14T21:26:26.032Z,47.54
2023-05-14T21:31:27.538Z,47.59
2023-05-14T21:36:29.070Z,47.34
2023-05-14T21:41:32.445Z,47.55
2023-05-14T21:46:34.136Z,47.87
2023-05-14T21:51:35.983Z,48.27
2023-05-14T21:56:37.524Z,47.87
2023-05-14T22:01:50.983Z,47.64
2023-05-14T22:07:00.641Z,47.89
2023-05-14T22:12:02.185Z,47.86
2023-05-14T22:17:04.740Z,48.25
2023-05-14T22:22:06.231Z,48.80
2023-05-14T22:27:07.775Z,48.32
2023-05-14T22:32:10.276Z,48.82
2023-05-14T22:37:11.776Z,48.41
2023-05-14T22:42:13.556Z,48.32
2023-05-14T22:47:15.994Z,48.67
2023-05-14T22:52:18.916Z,48.75
2023-05-14T22:57:20.575Z,48.84
2023-05-14T23:02:22.228Z,49.57
2023-05-14T23:07:23.802Z,48.73
2023-05-14T23:12:26.091Z,48.79
2023-05-14T23:17:27.677Z,48.91
2023-05-14T23:22:29.378Z,48.49
2023-05-14T23:27:30.864Z,48.54
2023-05-14T23:32:32.384Z,49.03
2023-05-14T23:37:33.988Z,49.05
2023-05-14T23:42:36.053Z,49.00
2023-05-14T23:47:37.600Z,49.41
2023-05-14T23:52:39.142Z,49.50
2023-05-14T23:57:41.125Z,49.35
